sensor_id;sensor_type;location;lat;lon;timestamp;P1;durP1;ratioP1;P2;durP2;ratioP2
71902;SDS011;59778;50.310;18.780;2022-12-18T00:12:15;53.20;;;13.90;;
71902;SDS011;59778;50.310;18.780;2022-12-18T00:27:36;52.07;;;14.00;;
71902;SDS011;59778;50.310;18.780;2022-12-18T00:42:57;45.87;;;14.77;;
71902;SDS011;59778;50.310;18.780;2022-12-18T00:58:18;47.53;;;12.50;;
71902;SDS011;59778;50.310;18.780;2022-12-18T01:13:40;45.03;;;13.10;;
71902;SDS011;59778;50.310;18.780;2022-12-18T01:29:01;44.83;;;13.67;;
71902;SDS011;59778;50.310;18.780;2022-12-18T02:00:22;67.57;;;18.33;;
71902;SDS011;59778;50.310;18.780;2022-12-18T02:15:51;53.20;;;15.70;;
71902;SDS011;59778;50.310;18.780;2022-12-18T02:31:20;46.27;;;14.63;;
71902;SDS011;59778;50.310;18.780;2022-12-18T02:46:53;39.80;;;11.73;;
71902;SDS011;59778;50.310;18.780;2022-12-18T03:17:40;44.27;;;13.10;;
71902;SDS011;59778;50.310;18.780;2022-12-18T03:33:11;45.53;;;12.43;;
71902;SDS011;59778;50.310;18.780;2022-12-18T03:48:44;35.77;;;11.27;;
71902;SDS011;59778;50.310;18.780;2022-12-18T04:04:12;50.70;;;14.03;;
71902;SDS011;59778;50.310;18.780;2022-12-18T04:19:35;62.67;;;17.67;;
71902;SDS011;59778;50.310;18.780;2022-12-18T04:34:57;65.83;;;19.80;;
71902;SDS011;59778;50.310;18.780;2022-12-18T04:50:18;59.53;;;18.40;;
71902;SDS011;59778;50.310;18.780;2022-12-18T05:05:39;66.17;;;19.97;;
71902;SDS011;59778;50.310;18.780;2022-12-18T05:21:00;70.30;;;22.90;;
71902;SDS011;59778;50.310;18.780;2022-12-18T05:36:22;86.37;;;23.20;;
71902;SDS011;59778;50.310;18.780;2022-12-18T05:51:43;131.27;;;36.83;;
71902;SDS011;59778;50.310;18.780;2022-12-18T06:07:04;77.00;;;22.90;;
71902;SDS011;59778;50.310;18.780;2022-12-18T06:22:25;72.73;;;21.80;;
71902;SDS011;59778;50.310;18.780;2022-12-18T06:37:47;87.47;;;22.37;;
71902;SDS011;59778;50.310;18.780;2022-12-18T06:53:08;73.10;;;21.83;;
71902;SDS011;59778;50.310;18.780;2022-12-18T07:08:29;69.10;;;21.43;;
71902;SDS011;59778;50.310;18.780;2022-12-18T07:23:51;68.30;;;19.07;;
71902;SDS011;59778;50.310;18.780;2022-12-18T07:39:13;66.10;;;20.37;;
71902;SDS011;59778;50.310;18.780;2022-12-18T07:54:34;67.20;;;18.53;;
71902;SDS011;59778;50.310;18.780;2022-12-18T08:09:56;66.30;;;19.03;;
71902;SDS011;59778;50.310;18.780;2022-12-18T08:25:17;86.40;;;23.77;;
71902;SDS011;59778;50.310;18.780;2022-12-18T08:40:38;91.33;;;26.20;;
71902;SDS011;59778;50.310;18.780;2022-12-18T08:55:59;73.53;;;20.27;;
71902;SDS011;59778;50.310;18.780;2022-12-18T09:11:22;71.77;;;21.93;;
71902;SDS011;59778;50.310;18.780;2022-12-18T09:26:46;63.27;;;19.30;;
71902;SDS011;59778;50.310;18.780;2022-12-18T09:42:09;62.97;;;18.73;;
71902;SDS011;59778;50.310;18.780;2022-12-18T09:57:47;64.63;;;17.63;;
71902;SDS011;59778;50.310;18.780;2022-12-18T10:13:17;57.03;;;19.30;;
71902;SDS011;59778;50.310;18.780;2022-12-18T10:28:59;60.83;;;18.10;;
71902;SDS011;59778;50.310;18.780;2022-12-18T10:44:22;60.07;;;21.20;;
71902;SDS011;59778;50.310;18.780;2022-12-18T10:59:55;58.13;;;17.90;;
71902;SDS011;59778;50.310;18.780;2022-12-18T11:15:21;59.93;;;19.00;;
71902;SDS011;59778;50.310;18.780;2022-12-18T11:31:08;53.13;;;18.37;;
71902;SDS011;59778;50.310;18.780;2022-12-18T11:46:37;58.33;;;17.97;;
71902;SDS011;59778;50.310;18.780;2022-12-18T12:49:18;74.67;;;23.00;;
71902;SDS011;59778;50.310;18.780;2022-12-18T13:20:22;65.07;;;21.07;;
71902;SDS011;59778;50.310;18.780;2022-12-18T13:36:02;55.93;;;18.90;;
71902;SDS011;59778;50.310;18.780;2022-12-18T13:51:33;57.73;;;20.67;;
71902;SDS011;59778;50.310;18.780;2022-12-18T14:06:57;47.27;;;17.73;;
71902;SDS011;59778;50.310;18.780;2022-12-18T14:22:25;57.87;;;19.27;;
71902;SDS011;59778;50.310;18.780;2022-12-18T14:37:50;65.63;;;21.17;;
71902;SDS011;59778;50.310;18.780;2022-12-18T14:53:18;75.37;;;23.77;;
71902;SDS011;59778;50.310;18.780;2022-12-18T15:08:43;105.60;;;31.27;;
71902;SDS011;59778;50.310;18.780;2022-12-18T15:24:04;97.97;;;29.27;;
71902;SDS011;59778;50.310;18.780;2022-12-18T15:39:38;139.00;;;41.90;;
71902;SDS011;59778;50.310;18.780;2022-12-18T15:55:00;135.27;;;40.70;;
71902;SDS011;59778;50.310;18.780;2022-12-18T16:10:39;226.93;;;69.50;;
71902;SDS011;59778;50.310;18.780;2022-12-18T16:26:01;226.87;;;69.20;;
71902;SDS011;59778;50.310;18.780;2022-12-18T16:41:22;177.90;;;56.87;;
71902;SDS011;59778;50.310;18.780;2022-12-18T16:56:52;144.47;;;52.30;;
71902;SDS011;59778;50.310;18.780;2022-12-18T17:12:13;133.03;;;43.70;;
71902;SDS011;59778;50.310;18.780;2022-12-18T17:27:35;141.40;;;47.23;;
71902;SDS011;59778;50.310;18.780;2022-12-18T17:42:56;148.03;;;50.00;;
71902;SDS011;59778;50.310;18.780;2022-12-18T17:58:17;112.90;;;41.43;;
71902;SDS011;59778;50.310;18.780;2022-12-18T18:13:39;119.53;;;40.60;;
71902;SDS011;59778;50.310;18.780;2022-12-18T18:29:20;126.27;;;37.57;;
71902;SDS011;59778;50.310;18.780;2022-12-18T18:44:43;125.53;;;41.27;;
71902;SDS011;59778;50.310;18.780;2022-12-18T19:00:04;104.17;;;32.23;;
71902;SDS011;59778;50.310;18.780;2022-12-18T19:15:26;99.67;;;36.50;;
71902;SDS011;59778;50.310;18.780;2022-12-18T19:30:47;104.30;;;31.30;;
71902;SDS011;59778;50.310;18.780;2022-12-18T19:46:10;107.87;;;33.27;;
71902;SDS011;59778;50.310;18.780;2022-12-18T20:01:36;96.93;;;30.47;;
71902;SDS011;59778;50.310;18.780;2022-12-18T20:16:57;90.63;;;35.77;;
71902;SDS011;59778;50.310;18.780;2022-12-18T20:32:18;108.00;;;33.67;;
71902;SDS011;59778;50.310;18.780;2022-12-18T20:47:41;99.73;;;29.07;;
71902;SDS011;59778;50.310;18.780;2022-12-18T21:03:02;85.47;;;27.47;;
71902;SDS011;59778;50.310;18.780;2022-12-18T21:18:24;79.60;;;26.17;;
71902;SDS011;59778;50.310;18.780;2022-12-18T21:33:45;96.03;;;28.97;;
71902;SDS011;59778;50.310;18.780;2022-12-18T21:49:07;77.97;;;23.80;;
71902;SDS011;59778;50.310;18.780;2022-12-18T22:04:29;82.83;;;23.97;;
71902;SDS011;59778;50.310;18.780;2022-12-18T22:19:50;73.03;;;24.13;;
71902;SDS011;59778;50.310;18.780;2022-12-18T22:35:11;71.73;;;25.17;;
71902;SDS011;59778;50.310;18.780;2022-12-18T22:50:33;86.93;;;29.63;;
71902;SDS011;59778;50.310;18.780;2022-12-18T23:06:00;79.43;;;23.13;;
71902;SDS011;59778;50.310;18.780;2022-12-18T23:21:23;78.63;;;26.30;;
71902;SDS011;59778;50.310;18.780;2022-12-18T23:36:44;83.03;;;26.30;;
71902;SDS011;59778;50.310;18.780;2022-12-18T23:52:06;98.27;;;27.60;;
